Time;durP1;ratioP1;P1;durP2;ratioP2;P2;SDS_P1;SDS_P2;PMS_P1;PMS_P2;Temp;Humidity;BMP_temperature;BMP_pressure;BME280_temperature;BME280_humidity;BME280_pressure;Samples;Min_cycle;Max_cycle;Signal;HPM_P1;HPM_P2
2021/07/15 00:00:11;;;;;;;;;;;;;;;28.16;41.86;96965.94;5054416;28;1626;-51
2021/07/15 00:02:36;;;;;;;;;;;;;;;28.15;41.98;96966.94;5056222;28;1479;-50
2021/07/15 00:05:04;;;;;;;;;;;;;;;28.15;42.14;96964.28;5059055;28;1253;-51
2021/07/15 00:07:30;;;;;;;;;;;;;;;28.20;41.58;96967.31;5059029;28;1276;-51
2021/07/15 00:09:55;;;;;;;;;;;;;;;28.18;41.97;96970.09;5055555;28;1547;-50
2021/07/15 00:12:20;;;;;;;;;;;;;;;28.09;42.15;96961.25;5059728;28;1156;-50
2021/07/15 00:14:45;;;;;;;;;;;;;;;28.16;41.98;96961.47;5058765;28;1906;-49
2021/07/15 00:17:10;;;;;;;;;;;;;;;28.13;41.96;96956.50;5057249;28;1575;-50
2021/07/15 00:19:36;;;;;;;;;;;;;;;28.03;42.22;96963.66;5058738;28;1514;-51
2021/07/15 00:22:01;;;;;;;;;;;;;;;28.08;42.03;96959.59;5059125;28;1235;-51
2021/07/15 00:24:27;;;;;;;;;;;;;;;28.27;41.60;96963.06;5056852;28;1614;-52
2021/07/15 00:26:52;;;;;;;;;;;;;;;28.13;42.03;96955.66;5058647;28;1348;-50
2021/07/15 00:29:18;;;;;;;;;;;;;;;28.21;41.58;96953.91;5058102;28;1341;-48
2021/07/15 00:31:43;;;;;;;;;;;;;;;28.13;42.07;96958.31;5058405;28;1105;-50
2021/07/15 00:34:08;;;;;;;;;;;;;;;28.14;41.68;96957.31;5060965;28;1571;-50
2021/07/15 00:36:33;;;;;;;;;;;;;;;28.12;42.08;96962.75;5059783;28;1910;-51
2021/07/15 00:38:59;;;;;;;;;;;;;;;28.05;42.13;96961.72;5061630;28;1761;-50
2021/07/15 00:41:24;;;;;;;;;;;;;;;28.17;41.89;96963.16;5061366;28;1211;-50
2021/07/15 00:43:49;;;;;;;;;;;;;;;28.12;42.00;96959.28;5062199;28;1207;-49
2021/07/15 00:46:14;;;;;;;;;;;;;;;28.06;42.17;96958.91;5062482;28;1249;-50
2021/07/15 00:48:39;;;;;;;;;;;;;;;27.95;42.28;96959.13;5061808;28;1587;-50
2021/07/15 00:51:05;;;;;;;;;;;;;;;28.08;42.17;96958.75;5064442;28;1260;-49
2021/07/15 00:53:30;;;;;;;;;;;;;;;28.27;41.57;96952.44;5051421;28;1200;-49
2021/07/15 00:55:56;;;;;;;;;;;;;;;28.02;42.28;96954.03;5061565;28;1894;-51
2021/07/15 00:58:21;;;;;;;;;;;;;;;28.05;41.90;96946.66;5057062;28;1563;-51
2021/07/15 01:00:48;;;;;;;;;;;;;;;28.20;41.83;96946.09;5046783;28;1674;-50
2021/07/15 01:03:13;;;;;;;;;;;;;;;28.19;41.98;96949.72;5057565;28;1349;-50
2021/07/15 01:05:39;;;;;;;;;;;;;;;28.15;41.79;96956.34;5060409;28;1160;-50
2021/07/15 01:08:05;;;;;;;;;;;;;;;28.13;42.11;96953.00;5059820;28;1555;-50
2021/07/15 01:10:31;;;;;;;;;;;;;;;28.13;41.81;96955.66;5060680;28;1583;-51
2021/07/15 01:12:57;;;;;;;;;;;;;;;28.12;41.84;96954.78;5064051;28;1084;-51
2021/07/15 01:15:22;;;;;;;;;;;;;;;28.22;41.49;96947.63;5062452;28;1898;-51
2021/07/15 01:17:47;;;;;;;;;;;;;;;28.24;41.76;96963.38;5065802;22;1802;-52
2021/07/15 01:20:31;;;;;;;;;;;;;;;28.12;41.88;96962.75;5028609;28;1579;-53
2021/07/15 01:23:12;;;;;;;;;;;;;;;28.15;41.77;96961.63;5031609;28;1055;-52
2021/07/15 01:25:57;;;;;;;;;;;;;;;28.05;42.13;96967.84;5015673;28;1682;-53
2021/07/15 01:28:51;;;;;;;;;;;;;;;28.12;41.94;96964.56;5036358;28;1559;-52
2021/07/15 01:31:17;;;;;;;;;;;;;;;28.15;42.02;96967.78;5020147;28;1323;-52
2021/07/15 01:33:42;;;;;;;;;;;;;;;28.16;41.83;96965.94;5013636;28;1534;-52
2021/07/15 01:36:08;;;;;;;;;;;;;;;28.21;41.74;96969.00;5014402;28;1918;-52
2021/07/15 01:38:34;;;;;;;;;;;;;;;28.06;42.16;96977.47;5014104;28;1296;-52
2021/07/15 01:41:03;;;;;;;;;;;;;;;28.05;41.88;96981.09;5029828;28;1679;-52
2021/07/15 01:43:33;;;;;;;;;;;;;;;28.02;42.24;96988.50;5030759;28;1173;-52
2021/07/15 01:45:59;;;;;;;;;;;;;;;28.23;41.70;96982.91;5013241;28;1193;-52
2021/07/15 01:48:24;;;;;;;;;;;;;;;27.99;42.38;96980.88;5027531;28;1529;-52
2021/07/15 01:50:49;;;;;;;;;;;;;;;28.04;42.05;96981.22;5014936;28;1476;-52
2021/07/15 01:53:15;;;;;;;;;;;;;;;28.04;42.21;96990.03;5012814;28;1160;-52
2021/07/15 01:55:40;;;;;;;;;;;;;;;28.19;41.85;96998.28;5030085;28;1898;-52
2021/07/15 01:58:06;;;;;;;;;;;;;;;28.03;42.08;96990.16;5030650;28;1505;-51
2021/07/15 02:00:31;;;;;;;;;;;;;;;27.95;42.25;96992.72;5014824;28;1181;-53
2021/07/15 02:02:56;;;;;;;;;;;;;;;28.12;42.06;96999.03;5013313;28;1478;-52
2021/07/15 02:05:21;;;;;;;;;;;;;;;28.07;42.05;97003.00;5012209;28;1564;-52
2021/07/15 02:07:46;;;;;;;;;;;;;;;28.02;42.01;96993.81;5013877;28;1367;-52
2021/07/15 02:10:14;;;;;;;;;;;;;;;28.01;42.22;96992.16;5030244;28;1558;-52
2021/07/15 02:12:40;;;;;;;;;;;;;;;28.03;42.10;96988.34;5030792;28;1157;-52
2021/07/15 02:15:05;;;;;;;;;;;;;;;28.10;42.02;96993.88;5013300;28;1898;-52
2021/07/15 02:17:33;;;;;;;;;;;;;;;27.98;42.09;96985.34;5031758;28;1316;-53
2021/07/15 02:19:58;;;;;;;;;;;;;;;28.08;42.16;96985.25;5010460;28;1628;-52
2021/07/15 02:22:23;;;;;;;;;;;;;;;28.01;42.13;96979.72;5031711;28;1196;-52
2021/07/15 02:24:49;;;;;;;;;;;;;;;27.99;42.01;96981.69;5028006;28;1575;-52
2021/07/15 02:27:14;;;;;;;;;;;;;;;28.00;42.06;96982.53;5014057;28;1296;-51
2021/07/15 02:29:39;;;;;;;;;;;;;;;27.99;41.83;96988.81;5012043;28;1248;-52
2021/07/15 02:32:08;;;;;;;;;;;;;;;28.14;41.73;96983.84;5030868;28;1357;-52
2021/07/15 02:34:36;;;;;;;;;;;;;;;27.95;42.25;96979.47;5026336;28;2016;-51
2021/07/15 02:37:01;;;;;;;;;;;;;;;28.11;41.61;96974.34;5030181;28;1906;-52
2021/07/15 02:39:26;;;;;;;;;;;;;;;28.11;41.85;96984.94;5029211;28;1586;-51
2021/07/15 02:41:51;;;;;;;;;;;;;;;28.05;41.68;96983.75;5030438;28;1278;-52
2021/07/15 02:44:17;;;;;;;;;;;;;;;28.09;41.90;96995.72;5013076;28;1185;-52
2021/07/15 02:46:42;;;;;;;;;;;;;;;28.08;41.89;96991.41;5030322;28;1456;-52
2021/07/15 02:49:07;;;;;;;;;;;;;;;28.06;41.88;96993.38;5029714;28;1731;-52
2021/07/15 02:51:32;;;;;;;;;;;;;;;28.03;42.00;96995.47;5029576;28;1467;-52
2021/07/15 02:53:59;;;;;;;;;;;;;;;27.96;42.30;96997.88;5030236;28;1626;-52
2021/07/15 02:57:02;;;;;;;;;;;;;;;27.90;42.24;97003.81;5023940;28;1902;-52
2021/07/15 02:59:46;;;;;;;;;;;;;;;28.00;42.01;97001.09;4970240;28;1787;-52
2021/07/15 03:02:20;;;;;;;;;;;;;;;28.03;42.00;97003.41;4955087;28;1614;-52
2021/07/15 03:04:47;;;;;;;;;;;;;;;28.02;42.17;96999.94;5004121;28;1637;-52
2021/07/15 03:07:13;;;;;;;;;;;;;;;28.03;41.73;96998.94;5028189;28;1621;-52
2021/07/15 03:09:38;;;;;;;;;;;;;;;28.02;42.06;97001.75;5006427;28;1623;-51
2021/07/15 03:12:05;;;;;;;;;;;;;;;28.01;42.08;97003.56;5021308;28;1672;-52
2021/07/15 03:14:31;;;;;;;;;;;;;;;28.05;42.01;96999.66;5023331;28;1748;-52
2021/07/15 03:16:56;;;;;;;;;;;;;;;27.97;42.20;96996.94;5006502;28;1898;-53
2021/07/15 03:19:21;;;;;;;;;;;;;;;28.15;41.48;97009.34;5009661;28;1531;-52
2021/07/15 03:21:46;;;;;;;;;;;;;;;28.24;41.67;97001.31;5011188;28;1757;-52
2021/07/15 03:24:11;;;;;;;;;;;;;;;28.16;41.75;97003.06;5009354;28;1597;-53
2021/07/15 03:26:37;;;;;;;;;;;;;;;28.23;41.66;97006.78;5026953;28;1452;-52
2021/07/15 03:29:02;;;;;;;;;;;;;;;27.99;42.07;97008.19;5011722;28;1496;-52
2021/07/15 03:31:27;;;;;;;;;;;;;;;27.97;42.11;97007.53;5011127;28;1190;-51
2021/07/15 03:33:53;;;;;;;;;;;;;;;27.94;42.12;97005.16;5009518;28;1575;-52
2021/07/15 03:36:18;;;;;;;;;;;;;;;27.96;42.09;97005.00;5012649;28;1968;-52
2021/07/15 03:38:43;;;;;;;;;;;;;;;27.95;42.10;97008.63;5011011;28;1432;-52
2021/07/15 03:41:09;;;;;;;;;;;;;;;28.05;41.84;97002.31;5011666;28;1841;-52
2021/07/15 03:43:34;;;;;;;;;;;;;;;27.97;42.11;97004.88;5026830;28;1581;-52
2021/07/15 03:46:00;;;;;;;;;;;;;;;28.27;41.44;97000.19;5012439;28;1149;-52
2021/07/15 03:48:26;;;;;;;;;;;;;;;28.08;41.78;97006.47;5009860;28;1770;-52
2021/07/15 03:50:52;;;;;;;;;;;;;;;27.90;42.34;97008.28;5011346;28;1475;-52
2021/07/15 03:53:17;;;;;;;;;;;;;;;28.02;42.02;97022.97;5027554;28;1562;-52
2021/07/15 03:55:42;;;;;;;;;;;;;;;27.89;42.00;97011.91;5027409;28;1963;-52
2021/07/15 03:58:08;;;;;;;;;;;;;;;27.89;42.28;97018.03;5029757;28;1280;-52
2021/07/15 04:00:33;;;;;;;;;;;;;;;27.98;41.91;97016.31;5028398;28;1550;-50
2021/07/15 04:03:00;;;;;;;;;;;;;;;28.12;41.67;97017.59;5011151;28;1617;-51
2021/07/15 04:05:26;;;;;;;;;;;;;;;28.01;41.96;97016.00;5010484;28;1378;-50
2021/07/15 04:07:52;;;;;;;;;;;;;;;28.03;42.08;97017.50;5014598;28;1277;-53
2021/07/15 04:10:17;;;;;;;;;;;;;;;28.11;41.65;97016.75;5031756;28;1669;-52
2021/07/15 04:12:42;;;;;;;;;;;;;;;28.03;41.65;97017.50;5034006;28;1286;-52
2021/07/15 04:15:08;;;;;;;;;;;;;;;27.90;42.14;97017.06;5033043;28;1898;-52
2021/07/15 04:17:37;;;;;;;;;;;;;;;28.02;41.79;97023.78;5032437;28;2116;-52
2021/07/15 04:20:04;;;;;;;;;;;;;;;27.97;42.04;97023.44;5027742;28;1701;-51
2021/07/15 04:22:29;;;;;;;;;;;;;;;28.06;41.98;97022.53;5033650;28;1181;-52
2021/07/15 04:24:54;;;;;;;;;;;;;;;27.98;42.20;97022.44;5031260;28;1546;-52
2021/07/15 04:27:19;;;;;;;;;;;;;;;27.96;41.99;97016.44;5014623;28;1382;-52
2021/07/15 04:29:44;;;;;;;;;;;;;;;27.95;41.80;97020.06;5015965;28;1256;-52
2021/07/15 04:32:09;;;;;;;;;;;;;;;28.18;41.71;97017.84;5014619;28;1301;-52
2021/07/15 04:34:35;;;;;;;;;;;;;;;28.03;41.68;97014.84;5030338;28;1585;-50
2021/07/15 04:37:00;;;;;;;;;;;;;;;27.94;42.04;97007.81;5032684;28;1914;-52
2021/07/15 04:39:26;;;;;;;;;;;;;;;28.02;42.06;97013.19;5012362;28;1588;-53
2021/07/15 04:41:52;;;;;;;;;;;;;;;28.08;41.68;97017.06;5014156;28;1409;-51
2021/07/15 04:44:17;;;;;;;;;;;;;;;27.98;42.07;97017.16;5014473;28;1169;-52
2021/07/15 04:46:42;;;;;;;;;;;;;;;27.80;42.46;97018.91;5014789;28;1346;-52
2021/07/15 04:49:07;;;;;;;;;;;;;;;28.19;41.66;97019.50;5029499;28;1566;-52
2021/07/15 04:51:33;;;;;;;;;;;;;;;28.07;41.74;97020.72;5032602;28;1188;-52
2021/07/15 04:53:58;;;;;;;;;;;;;;;28.14;41.69;97015.66;5011709;28;1531;-52
2021/07/15 04:56:23;;;;;;;;;;;;;;;27.94;41.98;97018.41;5015231;28;1974;-52
2021/07/15 04:58:48;;;;;;;;;;;;;;;27.88;42.09;97019.00;5013894;28;1374;-53
2021/07/15 05:01:14;;;;;;;;;;;;;;;27.91;42.06;97024.00;5032534;28;1297;-53
2021/07/15 05:03:39;;;;;;;;;;;;;;;27.99;41.98;97023.28;5013958;28;1737;-52
2021/07/15 05:06:05;;;;;;;;;;;;;;;27.89;42.33;97025.16;5031888;28;1405;-52
2021/07/15 05:08:31;;;;;;;;;;;;;;;27.89;42.09;97020.69;5032381;28;1280;-52
2021/07/15 05:10:56;;;;;;;;;;;;;;;28.04;41.95;97021.84;5013156;28;1758;-51
2021/07/15 05:13:21;;;;;;;;;;;;;;;28.04;41.89;97021.00;5033228;28;1200;-52
2021/07/15 05:15:47;;;;;;;;;;;;;;;27.93;41.96;97016.75;5031474;28;1914;-50
2021/07/15 05:18:12;;;;;;;;;;;;;;;28.17;41.52;97015.34;5032457;28;1649;-50
2021/07/15 05:20:37;;;;;;;;;;;;;;;28.04;41.78;97023.63;5030377;28;1415;-52
2021/07/15 05:23:02;;;;;;;;;;;;;;;27.93;41.90;97024.69;5032852;28;1184;-52
2021/07/15 05:25:27;;;;;;;;;;;;;;;28.07;41.70;97020.72;5030593;28;1550;-51
2021/07/15 05:27:53;;;;;;;;;;;;;;;27.87;42.29;97019.16;5030899;28;1625;-51
2021/07/15 05:30:18;;;;;;;;;;;;;;;27.96;41.99;97016.44;5031889;28;1140;-52
2021/07/15 05:32:43;;;;;;;;;;;;;;;28.17;41.34;97021.47;5028614;28;1602;-52
2021/07/15 05:35:08;;;;;;;;;;;;;;;27.88;42.12;97013.69;5032633;28;1979;-52
2021/07/15 05:37:34;;;;;;;;;;;;;;;27.99;42.13;97013.50;5031404;28;1292;-52
2021/07/15 05:39:59;;;;;;;;;;;;;;;27.95;42.10;97017.41;5032033;28;1761;-51
2021/07/15 05:42:24;;;;;;;;;;;;;;;27.98;41.91;97013.66;5032562;28;1424;-52
2021/07/15 05:44:49;;;;;;;;;;;;;;;27.95;42.03;97019.25;5033078;28;1650;-52
2021/07/15 05:47:15;;;;;;;;;;;;;;;27.95;41.85;97014.78;5034857;28;1476;-52
2021/07/15 05:49:40;;;;;;;;;;;;;;;27.99;41.96;97010.84;5036780;28;1320;-51
2021/07/15 05:52:05;;;;;;;;;;;;;;;27.81;42.28;97016.13;5037104;28;1292;-51
2021/07/15 05:54:31;;;;;;;;;;;;;;;27.93;41.91;97027.34;5033018;28;1577;-51
2021/07/15 05:56:56;;;;;;;;;;;;;;;27.94;42.10;97025.53;5031899;28;1898;-52
2021/07/15 05:59:21;;;;;;;;;;;;;;;27.97;42.11;97022.59;5031685;28;1299;-52
2021/07/15 06:01:46;;;;;;;;;;;;;;;28.15;41.69;97023.44;5014515;28;1279;-52
2021/07/15 06:04:12;;;;;;;;;;;;;;;27.98;42.07;97017.16;5030006;28;1598;-52
2021/07/15 06:06:37;;;;;;;;;;;;;;;28.05;41.49;97010.25;5031114;28;1156;-51
2021/07/15 06:09:02;;;;;;;;;;;;;;;27.93;42.22;97013.25;5030156;28;1558;-52
2021/07/15 06:11:28;;;;;;;;;;;;;;;27.95;41.99;97017.41;5031609;28;1252;-52
2021/07/15 06:13:53;;;;;;;;;;;;;;;27.96;41.79;97007.66;5030853;28;1030;-52
2021/07/15 06:16:18;;;;;;;;;;;;;;;28.00;41.78;97020.47;5031622;28;1911;-53
2021/07/15 06:18:43;;;;;;;;;;;;;;;28.02;42.06;97023.78;5029892;28;1562;-52
2021/07/15 06:21:08;;;;;;;;;;;;;;;27.98;42.08;97017.16;5031085;28;1164;-52
2021/07/15 06:23:34;;;;;;;;;;;;;;;27.91;42.13;97010.75;5030959;28;1201;-52
2021/07/15 06:25:59;;;;;;;;;;;;;;;28.03;42.00;97017.50;5029156;28;1613;-52
2021/07/15 06:28:25;;;;;;;;;;;;;;;28.08;41.53;97017.91;5030850;28;1394;-53
2021/07/15 06:30:50;;;;;;;;;;;;;;;28.00;41.59;97019.63;5030098;28;1248;-52
2021/07/15 06:33:15;;;;;;;;;;;;;;;27.95;42.08;97020.06;5029338;28;1653;-52
2021/07/15 06:35:41;;;;;;;;;;;;;;;28.09;41.73;97019.56;5030548;28;1963;-52
2021/07/15 06:38:06;;;;;;;;;;;;;;;28.09;41.50;97014.25;5030817;28;1355;-52
2021/07/15 06:40:31;;;;;;;;;;;;;;;27.96;41.70;97024.38;5029570;28;1558;-52
2021/07/15 06:42:57;;;;;;;;;;;;;;;27.84;42.24;97020.28;5030668;28;1117;-54
2021/07/15 06:45:22;;;;;;;;;;;;;;;27.96;41.83;97019.09;5030007;28;1189;-52
2021/07/15 06:47:47;;;;;;;;;;;;;;;28.04;41.76;97029.81;5030056;28;1378;-52
2021/07/15 06:50:13;;;;;;;;;;;;;;;28.04;41.54;97021.00;5028888;28;1591;-52
2021/07/15 06:52:38;;;;;;;;;;;;;;;28.01;41.97;97022.13;5030251;28;1220;-52
2021/07/15 06:55:03;;;;;;;;;;;;;;;27.94;41.96;97026.34;5027098;28;1960;-53
2021/07/15 06:57:29;;;;;;;;;;;;;;;28.05;41.94;97028.00;5030562;28;1292;-51
2021/07/15 06:59:54;;;;;;;;;;;;;;;27.88;42.15;97034.91;5030131;28;1299;-52
2021/07/15 07:02:19;;;;;;;;;;;;;;;27.98;41.70;97032.22;5030899;28;1218;-52
2021/07/15 07:04:44;;;;;;;;;;;;;;;28.03;41.88;97033.41;5028702;28;1638;-52
2021/07/15 07:07:10;;;;;;;;;;;;;;;27.93;41.97;97034.47;5030630;28;1377;-52
2021/07/15 07:09:35;;;;;;;;;;;;;;;27.94;41.77;97030.81;5024111;28;1679;-52
2021/07/15 07:12:00;;;;;;;;;;;;;;;28.07;41.52;97039.25;5030779;28;1268;-52
2021/07/15 07:14:25;;;;;;;;;;;;;;;27.94;41.77;97044.91;5030078;28;1366;-50
2021/07/15 07:16:50;;;;;;;;;;;;;;;27.99;41.97;97034.72;5030070;28;1906;-52
2021/07/15 07:21:43;;;;;;;;;;;;;;;27.93;42.00;97040.59;5024923;28;1445;-52
2021/07/15 07:24:10;;;;;;;;;;;;;;;27.88;42.15;97040.19;5027839;28;1593;-53
2021/07/15 07:26:35;;;;;;;;;;;;;;;28.07;41.80;97032.16;5028783;28;1566;-52
2021/07/15 07:29:00;;;;;;;;;;;;;;;27.92;42.05;97038.94;5029954;28;1557;-52
2021/07/15 07:31:26;;;;;;;;;;;;;;;27.90;42.18;97042.72;5035164;28;1140;-53
2021/07/15 07:33:51;;;;;;;;;;;;;;;27.90;42.02;97032.13;5030286;28;1569;-53
2021/07/15 07:36:16;;;;;;;;;;;;;;;27.96;41.91;97032.34;5017892;28;1926;-53
2021/07/15 07:38:42;;;;;;;;;;;;;;;27.94;41.79;97034.31;5037407;28;1276;-53
2021/07/15 07:41:07;;;;;;;;;;;;;;;27.99;41.78;97029.41;5033367;28;1604;-52
2021/07/15 07:43:32;;;;;;;;;;;;;;;28.04;41.58;97026.28;5039559;28;1413;-52
2021/07/15 07:45:57;;;;;;;;;;;;;;;28.01;41.97;97029.25;5031854;28;1711;-53
2021/07/15 07:48:22;;;;;;;;;;;;;;;27.89;41.79;97022.50;5037783;28;1228;-53
2021/07/15 07:50:48;;;;;;;;;;;;;;;27.98;41.83;97022.44;5039919;28;1188;-53
2021/07/15 07:53:13;;;;;;;;;;;;;;;27.99;41.89;97026.75;5036873;28;1556;-52
2021/07/15 07:55:39;;;;;;;;;;;;;;;27.92;42.18;97028.34;5033777;28;1898;-53
2021/07/15 07:58:05;;;;;;;;;;;;;;;27.85;41.99;97031.72;5036512;28;1461;-53
2021/07/15 08:00:30;;;;;;;;;;;;;;;28.09;41.76;97035.47;5018474;28;1342;-53
2021/07/15 08:02:55;;;;;;;;;;;;;;;27.92;41.88;97027.50;5032367;28;1590;-53
2021/07/15 08:05:22;;;;;;;;;;;;;;;27.96;41.89;97035.00;5034703;28;1450;-51
2021/07/15 08:07:48;;;;;;;;;;;;;;;27.97;42.02;97031.38;5034485;28;1283;-52
2021/07/15 08:10:13;;;;;;;;;;;;;;;27.81;42.31;97031.19;5032093;28;1603;-52
2021/07/15 08:12:38;;;;;;;;;;;;;;;27.96;41.88;97035.00;5033196;28;1355;-54
2021/07/15 08:15:04;;;;;;;;;;;;;;;27.88;42.15;97026.94;5036114;28;1219;-53
2021/07/15 08:17:29;;;;;;;;;;;;;;;27.84;42.31;97030.06;5040941;28;1304;-53
2021/07/15 08:19:54;;;;;;;;;;;;;;;27.97;41.91;97035.84;5036264;28;1613;-53
2021/07/15 08:22:20;;;;;;;;;;;;;;;28.05;41.65;97039.41;5036313;28;1097;-52
2021/07/15 08:24:45;;;;;;;;;;;;;;;27.97;41.99;97033.19;5034793;28;1612;-53
2021/07/15 08:27:10;;;;;;;;;;;;;;;28.02;41.87;97039.69;5040476;28;1245;-52
2021/07/15 08:29:35;;;;;;;;;;;;;;;28.10;41.60;97038.94;5037344;28;1305;-52
2021/07/15 08:32:00;;;;;;;;;;;;;;;27.89;41.94;97038.41;5036267;28;1625;-53
2021/07/15 08:34:26;;;;;;;;;;;;;;;27.92;42.20;97043.41;5035729;28;1125;-53
2021/07/15 08:36:51;;;;;;;;;;;;;;;27.96;41.93;97035.00;5038248;28;1913;-52
2021/07/15 08:39:17;;;;;;;;;;;;;;;27.89;42.02;97049.84;5034840;28;1676;-53
2021/07/15 08:41:44;;;;;;;;;;;;;;;27.98;41.96;97042.81;5038981;28;1296;-53
2021/07/15 08:44:10;;;;;;;;;;;;;;;27.99;41.82;97037.34;5038050;28;1196;-53
2021/07/15 08:46:35;;;;;;;;;;;;;;;27.97;41.88;97046.44;5015727;28;1673;-54
2021/07/15 08:49:00;;;;;;;;;;;;;;;27.97;42.03;97047.28;5022073;28;1343;-53
2021/07/15 08:51:25;;;;;;;;;;;;;;;28.07;41.57;97044.56;5019701;28;1082;-53
2021/07/15 08:53:51;;;;;;;;;;;;;;;28.12;41.82;97058.19;5021946;28;1581;-53
2021/07/15 08:59:00;;;;;;;;;;;;;;;27.94;42.05;97050.22;5042411;28;1304;-52
2021/07/15 09:01:25;;;;;;;;;;;;;;;27.95;41.96;97049.22;5041722;28;1125;-53
2021/07/15 09:03:52;;;;;;;;;;;;;;;28.06;41.88;97051.69;5033430;28;1653;-53
2021/07/15 09:06:17;;;;;;;;;;;;;;;28.05;41.85;97051.84;5022319;28;1109;-52
2021/07/15 09:08:42;;;;;;;;;;;;;;;28.01;41.57;97045.16;5024524;28;1366;-53
2021/07/15 09:11:07;;;;;;;;;;;;;;;27.92;42.04;97043.41;5038709;28;1507;-52
2021/07/15 09:13:33;;;;;;;;;;;;;;;27.96;41.99;97042.94;5041884;28;1199;-52
2021/07/15 09:15:58;;;;;;;;;;;;;;;28.10;41.79;97045.09;5041348;28;1906;-50
2021/07/15 09:18:23;;;;;;;;;;;;;;;27.97;41.76;97044.63;5037556;28;1541;-51
2021/07/15 09:20:48;;;;;;;;;;;;;;;27.95;42.06;97045.75;5037733;28;1224;-51
2021/07/15 09:23:14;;;;;;;;;;;;;;;27.96;41.88;97044.75;5042452;28;1164;-53
2021/07/15 09:25:39;;;;;;;;;;;;;;;27.96;41.90;97050.88;5037441;28;1589;-53
2021/07/15 09:28:09;;;;;;;;;;;;;;;27.95;41.80;97049.22;5042013;28;1371;-53
2021/07/15 09:30:34;;;;;;;;;;;;;;;27.90;42.01;97034.78;5039660;28;1196;-52
2021/07/15 09:33:00;;;;;;;;;;;;;;;27.94;42.15;97047.56;5036414;28;1347;-53
2021/07/15 09:35:35;;;;;;;;;;;;;;;27.99;41.72;97050.59;5035109;28;1914;-53
2021/07/15 09:38:10;;;;;;;;;;;;;;;28.03;41.67;97038.72;5036254;28;1423;-53
2021/07/15 09:40:39;;;;;;;;;;;;;;;28.01;41.76;97042.50;5035432;28;1629;-54
2021/07/15 09:43:31;;;;;;;;;;;;;;;27.96;41.66;97037.63;5039117;28;1417;-53
2021/07/15 09:45:57;;;;;;;;;;;;;;;27.92;41.91;97041.59;5030282;28;1652;-53
2021/07/15 09:48:23;;;;;;;;;;;;;;;28.07;41.42;97037.44;5038983;28;1524;-53
2021/07/15 09:50:48;;;;;;;;;;;;;;;28.03;41.58;97041.38;5035831;28;1502;-53
2021/07/15 09:53:18;;;;;;;;;;;;;;;27.99;41.57;97044.47;5025526;28;1625;-52
2021/07/15 09:55:43;;;;;;;;;;;;;;;28.08;41.45;97038.28;5031617;28;1977;-53
2021/07/15 09:58:09;;;;;;;;;;;;;;;28.02;41.96;97041.53;5018499;28;1378;-53
2021/07/15 10:00:35;;;;;;;;;;;;;;;27.94;41.97;97041.44;5036910;28;1192;-52
2021/07/15 10:03:00;;;;;;;;;;;;;;;28.05;41.43;97038.59;5034031;28;1750;-53
2021/07/15 10:05:25;;;;;;;;;;;;;;;28.03;41.66;97041.38;5035937;28;1180;-53
2021/07/15 10:07:57;;;;;;;;;;;;;;;28.07;41.60;97042.75;5036706;28;1303;-53
2021/07/15 10:10:22;;;;;;;;;;;;;;;28.13;41.27;97045.78;5019317;28;1650;-54
2021/07/15 10:12:47;;;;;;;;;;;;;;;28.00;41.75;97040.84;5035983;28;1210;-53
2021/07/15 10:15:13;;;;;;;;;;;;;;;27.97;41.99;97041.16;5035792;28;1906;-53
2021/07/15 10:17:39;;;;;;;;;;;;;;;27.94;41.67;97047.56;5032762;28;1617;-53
2021/07/15 10:20:14;;;;;;;;;;;;;;;27.86;42.32;97038.69;5035547;28;1126;-53
2021/07/15 10:22:40;;;;;;;;;;;;;;;28.04;41.80;97043.06;5033498;28;1275;-53
2021/07/15 10:25:05;;;;;;;;;;;;;;;28.05;41.55;97047.38;5034106;28;1573;-53
2021/07/15 10:27:31;;;;;;;;;;;;;;;28.02;41.93;97045.00;5033707;28;1318;-53
2021/07/15 10:29:57;;;;;;;;;;;;;;;27.94;42.05;97046.72;5018254;28;1405;-53
2021/07/15 10:32:23;;;;;;;;;;;;;;;28.08;41.61;97047.06;5037133;28;1172;-52
2021/07/15 10:34:52;;;;;;;;;;;;;;;28.03;41.73;97041.38;5033429;28;1581;-52
2021/07/15 10:37:17;;;;;;;;;;;;;;;28.02;41.82;97046.81;5035192;28;1993;-53
2021/07/15 10:39:42;;;;;;;;;;;;;;;27.98;41.83;97043.66;5017180;28;1555;-53
2021/07/15 10:42:08;;;;;;;;;;;;;;;27.97;41.77;97047.28;5021586;28;1448;-53
2021/07/15 10:44:33;;;;;;;;;;;;;;;28.03;41.98;97048.47;5035548;28;1132;-53
2021/07/15 10:46:58;;;;;;;;;;;;;;;27.91;41.97;97050.50;5019507;28;1154;-53
2021/07/15 10:49:24;;;;;;;;;;;;;;;28.05;41.75;97055.31;5019602;28;1638;-53
2021/07/15 10:51:49;;;;;;;;;;;;;;;28.04;41.92;97056.31;5033605;28;1569;-53
2021/07/15 10:54:18;;;;;;;;;;;;;;;28.01;41.79;97046.00;5034241;28;1657;-51
2021/07/15 10:56:49;;;;;;;;;;;;;;;28.02;41.64;97055.59;5034239;28;1969;-53
2021/07/15 10:59:24;;;;;;;;;;;;;;;27.91;42.07;97053.16;5035975;28;1318;-53
2021/07/15 11:01:50;;;;;;;;;;;;;;;28.03;41.96;97046.66;5034079;28;1120;-52
2021/07/15 11:04:18;;;;;;;;;;;;;;;28.11;41.57;97056.53;5034689;28;1620;-52
2021/07/15 11:06:44;;;;;;;;;;;;;;;27.99;41.96;97061.22;5034378;28;1128;-53
2021/07/15 11:09:31;;;;;;;;;;;;;;;28.06;41.93;97059.63;5032735;28;1636;-53
2021/07/15 11:11:57;;;;;;;;;;;;;;;28.08;41.67;97064.78;5034163;28;1030;-53
2021/07/15 11:14:41;;;;;;;;;;;;;;;28.19;41.34;97061.09;5036490;28;1278;-53
2021/07/15 11:17:23;;;;;;;;;;;;;;;27.81;42.10;97052.41;5032560;28;1910;-53
2021/07/15 11:19:55;;;;;;;;;;;;;;;28.01;41.97;97050.47;5014554;28;1582;-53
2021/07/15 11:22:33;;;;;;;;;;;;;;;28.04;41.61;97060.75;5032312;28;1275;-52
2021/07/15 11:25:03;;;;;;;;;;;;;;;28.02;41.99;97057.41;5029860;28;1573;-53
2021/07/15 11:27:28;;;;;;;;;;;;;;;28.01;41.86;97063.72;5033344;28;1860;-53
2021/07/15 11:29:53;;;;;;;;;;;;;;;27.95;42.08;97059.81;5032452;28;1216;-53
2021/07/15 11:32:25;;;;;;;;;;;;;;;28.08;41.65;97065.63;5035303;28;1649;-52
2021/07/15 11:34:53;;;;;;;;;;;;;;;27.99;41.68;97061.22;5030392;28;1605;-53
2021/07/15 11:37:35;;;;;;;;;;;;;;;28.00;41.93;97070.81;5037205;28;1989;-53
2021/07/15 11:40:00;;;;;;;;;;;;;;;27.91;42.27;97074.38;5015108;28;1703;-52
2021/07/15 11:42:27;;;;;;;;;;;;;;;28.09;41.85;97077.88;5033520;28;1628;-53
2021/07/15 11:44:56;;;;;;;;;;;;;;;27.98;41.74;97075.44;5018942;28;1483;-54
2021/07/15 11:47:40;;;;;;;;;;;;;;;28.01;41.81;97075.16;5036097;28;1371;-53
2021/07/15 11:50:05;;;;;;;;;;;;;;;28.09;41.63;97077.06;5028595;28;1605;-53
2021/07/15 11:52:30;;;;;;;;;;;;;;;28.05;41.66;97076.53;5036285;28;1244;-55
2021/07/15 11:54:55;;;;;;;;;;;;;;;28.01;41.82;97072.50;5018478;28;1499;-54
2021/07/15 11:57:22;;;;;;;;;;;;;;;27.92;42.12;97069.91;5018859;28;1898;-53
2021/07/15 11:59:51;;;;;;;;;;;;;;;28.04;41.74;97077.53;5034905;28;1077;-52
2021/07/15 12:02:24;;;;;;;;;;;;;;;27.94;41.96;97073.22;5038627;28;1109;-53
2021/07/15 12:05:05;;;;;;;;;;;;;;;27.98;41.91;97074.63;5028926;28;1568;-53
2021/07/15 12:07:30;;;;;;;;;;;;;;;27.91;42.17;97078.84;5033471;28;1579;-53
2021/07/15 12:09:56;;;;;;;;;;;;;;;27.99;41.72;97077.13;5029909;28;1553;-53
2021/07/15 12:12:21;;;;;;;;;;;;;;;28.01;41.64;97083.09;5017938;28;1470;-53
2021/07/15 12:14:52;;;;;;;;;;;;;;;27.94;42.20;97095.25;5034943;28;1109;-53
2021/07/15 12:17:18;;;;;;;;;;;;;;;27.85;42.05;97087.38;5033236;28;2054;-53
2021/07/15 12:19:53;;;;;;;;;;;;;;;28.01;42.01;97091.03;4996328;28;1050367;-53
2021/07/15 12:22:18;;;;;;;;;;;;;;;27.96;41.97;97087.16;5035670;28;1154;-53
2021/07/15 12:24:45;;;;;;;;;;;;;;;28.03;41.88;97085.59;5016702;28;1571;-52
2021/07/15 12:27:10;;;;;;;;;;;;;;;28.00;42.07;97091.19;5037427;28;1245;-53
2021/07/15 12:29:48;;;;;;;;;;;;;;;28.00;41.87;97094.69;5038700;28;1511;-52
2021/07/15 12:32:13;;;;;;;;;;;;;;;27.91;42.14;97094.75;5019995;28;1615;-54
2021/07/15 12:34:40;;;;;;;;;;;;;;;28.11;41.59;97096.28;5039236;28;1413;-54
2021/07/15 12:37:10;;;;;;;;;;;;;;;27.97;41.88;97100.28;5041459;28;1981;-53
2021/07/15 12:39:35;;;;;;;;;;;;;;;27.97;41.85;97096.81;5035710;28;1561;-53
2021/07/15 12:42:01;;;;;;;;;;;;;;;27.91;42.18;97105.34;5043620;28;1196;-52
2021/07/15 12:44:26;;;;;;;;;;;;;;;27.86;42.05;97097.81;5035066;28;1557;-53
2021/07/15 12:46:52;;;;;;;;;;;;;;;28.15;41.63;97102.16;5023414;28;1412;-54
2021/07/15 12:49:22;;;;;;;;;;;;;;;27.93;42.01;97113.97;5038720;28;1513;-53
2021/07/15 12:51:51;;;;;;;;;;;;;;;28.04;41.52;97117.28;5037539;28;1225;-53
2021/07/15 12:54:28;;;;;;;;;;;;;;;27.99;41.85;97116.88;5034970;28;1581;-53
2021/07/15 12:56:53;;;;;;;;;;;;;;;28.05;41.86;97115.47;5038246;28;1910;-53
2021/07/15 12:59:18;;;;;;;;;;;;;;;27.92;41.98;97126.38;5021652;28;1375;-52